sensor_id;sensor_type;location;lat;lon;timestamp;P1;durP1;ratioP1;P2;durP2;ratioP2
75854;SDS011;64502;59.976;30.316;2024-01-15T00:02:11;13.05;;;3.53;;
75854;SDS011;64502;59.976;30.316;2024-01-15T00:04:37;9.30;;;3.72;;
75854;SDS011;64502;59.976;30.316;2024-01-15T00:07:03;12.20;;;4.13;;
75854;SDS011;64502;59.976;30.316;2024-01-15T00:09:29;11.20;;;4.60;;
75854;SDS011;64502;59.976;30.316;2024-01-15T00:11:54;8.82;;;4.13;;
75854;SDS011;64502;59.976;30.316;2024-01-15T00:14:20;9.07;;;4.18;;
75854;SDS011;64502;59.976;30.316;2024-01-15T00:16:46;11.07;;;4.65;;
75854;SDS011;64502;59.976;30.316;2024-01-15T00:19:12;12.07;;;4.47;;
75854;SDS011;64502;59.976;30.316;2024-01-15T00:21:37;9.27;;;4.35;;
75854;SDS011;64502;59.976;30.316;2024-01-15T00:24:03;10.10;;;4.10;;
75854;SDS011;64502;59.976;30.316;2024-01-15T00:26:28;10.60;;;4.78;;
75854;SDS011;64502;59.976;30.316;2024-01-15T00:28:54;10.98;;;4.85;;
75854;SDS011;64502;59.976;30.316;2024-01-15T00:31:19;12.45;;;6.05;;
75854;SDS011;64502;59.976;30.316;2024-01-15T00:33:45;20.83;;;7.43;;
75854;SDS011;64502;59.976;30.316;2024-01-15T00:36:11;17.52;;;6.07;;
75854;SDS011;64502;59.976;30.316;2024-01-15T00:38:36;10.32;;;4.63;;
75854;SDS011;64502;59.976;30.316;2024-01-15T00:41:01;16.60;;;5.78;;
75854;SDS011;64502;59.976;30.316;2024-01-15T00:43:27;15.50;;;6.28;;
75854;SDS011;64502;59.976;30.316;2024-01-15T00:45:53;15.15;;;5.38;;
75854;SDS011;64502;59.976;30.316;2024-01-15T00:48:19;13.35;;;5.60;;
75854;SDS011;64502;59.976;30.316;2024-01-15T00:50:45;17.67;;;6.07;;
75854;SDS011;64502;59.976;30.316;2024-01-15T00:53:10;19.55;;;6.50;;
75854;SDS011;64502;59.976;30.316;2024-01-15T00:55:37;10.48;;;3.90;;
75854;SDS011;64502;59.976;30.316;2024-01-15T00:58:03;15.02;;;5.82;;
75854;SDS011;64502;59.976;30.316;2024-01-15T01:00:28;16.15;;;6.72;;
75854;SDS011;64502;59.976;30.316;2024-01-15T01:02:54;20.20;;;7.47;;
75854;SDS011;64502;59.976;30.316;2024-01-15T01:05:19;11.77;;;4.95;;
75854;SDS011;64502;59.976;30.316;2024-01-15T01:07:45;12.30;;;5.32;;
75854;SDS011;64502;59.976;30.316;2024-01-15T01:10:10;14.60;;;5.82;;
75854;SDS011;64502;59.976;30.316;2024-01-15T01:12:36;11.95;;;5.47;;
75854;SDS011;64502;59.976;30.316;2024-01-15T01:15:01;9.63;;;4.00;;
75854;SDS011;64502;59.976;30.316;2024-01-15T01:17:27;10.98;;;4.72;;
75854;SDS011;64502;59.976;30.316;2024-01-15T01:19:53;8.85;;;4.03;;
75854;SDS011;64502;59.976;30.316;2024-01-15T01:22:19;11.68;;;4.55;;
75854;SDS011;64502;59.976;30.316;2024-01-15T01:24:44;10.95;;;6.05;;
75854;SDS011;64502;59.976;30.316;2024-01-15T01:27:10;11.63;;;4.90;;
75854;SDS011;64502;59.976;30.316;2024-01-15T01:29:35;16.08;;;6.35;;
75854;SDS011;64502;59.976;30.316;2024-01-15T01:32:01;16.17;;;6.45;;
75854;SDS011;64502;59.976;30.316;2024-01-15T01:34:26;13.20;;;5.55;;
75854;SDS011;64502;59.976;30.316;2024-01-15T01:36:51;11.95;;;4.70;;
75854;SDS011;64502;59.976;30.316;2024-01-15T01:39:17;13.48;;;5.95;;
75854;SDS011;64502;59.976;30.316;2024-01-15T01:41:42;16.08;;;5.78;;
75854;SDS011;64502;59.976;30.316;2024-01-15T01:44:08;23.48;;;6.78;;
75854;SDS011;64502;59.976;30.316;2024-01-15T01:46:33;18.40;;;6.07;;
75854;SDS011;64502;59.976;30.316;2024-01-15T01:49:04;10.02;;;5.18;;
75854;SDS011;64502;59.976;30.316;2024-01-15T01:51:31;11.02;;;4.38;;
75854;SDS011;64502;59.976;30.316;2024-01-15T01:53:59;15.52;;;6.28;;
75854;SDS011;64502;59.976;30.316;2024-01-15T01:56:25;19.40;;;5.88;;
75854;SDS011;64502;59.976;30.316;2024-01-15T01:58:51;13.82;;;5.97;;
75854;SDS011;64502;59.976;30.316;2024-01-15T02:01:17;13.98;;;5.18;;
75854;SDS011;64502;59.976;30.316;2024-01-15T02:03:43;15.48;;;5.90;;
75854;SDS011;64502;59.976;30.316;2024-01-15T02:06:09;13.15;;;5.78;;
75854;SDS011;64502;59.976;30.316;2024-01-15T02:08:35;15.23;;;5.55;;
75854;SDS011;64502;59.976;30.316;2024-01-15T02:11:01;16.02;;;5.10;;
75854;SDS011;64502;59.976;30.316;2024-01-15T02:13:27;17.35;;;5.90;;
75854;SDS011;64502;59.976;30.316;2024-01-15T02:15:52;12.90;;;5.97;;
75854;SDS011;64502;59.976;30.316;2024-01-15T02:18:17;12.77;;;4.88;;
75854;SDS011;64502;59.976;30.316;2024-01-15T02:20:43;15.13;;;4.57;;
75854;SDS011;64502;59.976;30.316;2024-01-15T02:23:12;14.00;;;5.90;;
75854;SDS011;64502;59.976;30.316;2024-01-15T02:25:46;12.27;;;4.90;;
75854;SDS011;64502;59.976;30.316;2024-01-15T02:28:12;14.48;;;4.85;;
75854;SDS011;64502;59.976;30.316;2024-01-15T02:30:40;11.10;;;4.03;;
75854;SDS011;64502;59.976;30.316;2024-01-15T02:33:07;9.68;;;4.50;;
75854;SDS011;64502;59.976;30.316;2024-01-15T02:35:33;12.48;;;4.38;;
75854;SDS011;64502;59.976;30.316;2024-01-15T02:38:01;13.15;;;4.68;;
75854;SDS011;64502;59.976;30.316;2024-01-15T02:40:27;10.43;;;4.95;;
75854;SDS011;64502;59.976;30.316;2024-01-15T02:42:53;9.65;;;4.78;;
75854;SDS011;64502;59.976;30.316;2024-01-15T02:45:19;12.80;;;4.40;;
75854;SDS011;64502;59.976;30.316;2024-01-15T02:47:45;12.73;;;5.38;;
75854;SDS011;64502;59.976;30.316;2024-01-15T02:50:10;15.55;;;5.88;;
75854;SDS011;64502;59.976;30.316;2024-01-15T02:52:35;10.40;;;4.28;;
75854;SDS011;64502;59.976;30.316;2024-01-15T02:55:01;14.25;;;5.35;;
75854;SDS011;64502;59.976;30.316;2024-01-15T02:57:26;9.30;;;4.38;;
75854;SDS011;64502;59.976;30.316;2024-01-15T02:59:52;13.15;;;5.15;;
75854;SDS011;64502;59.976;30.316;2024-01-15T03:02:17;18.50;;;6.55;;
75854;SDS011;64502;59.976;30.316;2024-01-15T03:04:43;14.93;;;6.10;;
75854;SDS011;64502;59.976;30.316;2024-01-15T03:07:09;12.02;;;5.28;;
75854;SDS011;64502;59.976;30.316;2024-01-15T03:09:34;14.73;;;5.25;;
75854;SDS011;64502;59.976;30.316;2024-01-15T03:12:00;14.82;;;5.95;;
75854;SDS011;64502;59.976;30.316;2024-01-15T03:14:25;12.75;;;5.20;;
75854;SDS011;64502;59.976;30.316;2024-01-15T03:16:51;11.25;;;5.15;;
75854;SDS011;64502;59.976;30.316;2024-01-15T03:19:17;11.20;;;5.38;;
75854;SDS011;64502;59.976;30.316;2024-01-15T03:21:42;13.05;;;5.88;;
75854;SDS011;64502;59.976;30.316;2024-01-15T03:24:08;11.18;;;5.80;;
75854;SDS011;64502;59.976;30.316;2024-01-15T03:26:34;14.90;;;5.90;;
75854;SDS011;64502;59.976;30.316;2024-01-15T03:28:59;16.90;;;6.82;;
75854;SDS011;64502;59.976;30.316;2024-01-15T03:31:25;14.45;;;6.25;;
75854;SDS011;64502;59.976;30.316;2024-01-15T03:33:53;16.88;;;6.90;;
75854;SDS011;64502;59.976;30.316;2024-01-15T03:36:18;12.60;;;5.32;;
75854;SDS011;64502;59.976;30.316;2024-01-15T03:38:43;12.45;;;5.88;;
75854;SDS011;64502;59.976;30.316;2024-01-15T03:41:09;18.10;;;5.80;;
75854;SDS011;64502;59.976;30.316;2024-01-15T03:43:34;12.23;;;6.35;;
75854;SDS011;64502;59.976;30.316;2024-01-15T03:46:00;21.05;;;6.60;;
75854;SDS011;64502;59.976;30.316;2024-01-15T03:48:27;19.38;;;7.22;;
75854;SDS011;64502;59.976;30.316;2024-01-15T03:50:52;19.23;;;6.65;;
75854;SDS011;64502;59.976;30.316;2024-01-15T03:53:18;11.38;;;6.18;;
75854;SDS011;64502;59.976;30.316;2024-01-15T03:55:43;14.05;;;5.57;;
75854;SDS011;64502;59.976;30.316;2024-01-15T03:58:09;14.77;;;7.45;;
75854;SDS011;64502;59.976;30.316;2024-01-15T04:00:34;13.02;;;5.45;;
75854;SDS011;64502;59.976;30.316;2024-01-15T04:02:59;16.52;;;7.10;;
75854;SDS011;64502;59.976;30.316;2024-01-15T04:05:25;24.73;;;8.63;;
75854;SDS011;64502;59.976;30.316;2024-01-15T04:07:51;23.95;;;7.40;;
75854;SDS011;64502;59.976;30.316;2024-01-15T04:10:16;16.80;;;7.25;;
75854;SDS011;64502;59.976;30.316;2024-01-15T04:12:42;19.90;;;7.82;;
75854;SDS011;64502;59.976;30.316;2024-01-15T04:15:07;22.08;;;8.18;;
75854;SDS011;64502;59.976;30.316;2024-01-15T04:17:33;21.83;;;9.02;;
75854;SDS011;64502;59.976;30.316;2024-01-15T04:19:59;22.30;;;8.77;;
75854;SDS011;64502;59.976;30.316;2024-01-15T04:22:25;25.92;;;8.48;;
75854;SDS011;64502;59.976;30.316;2024-01-15T04:24:50;19.85;;;8.05;;
75854;SDS011;64502;59.976;30.316;2024-01-15T04:27:16;23.83;;;8.70;;
75854;SDS011;64502;59.976;30.316;2024-01-15T04:29:41;20.27;;;7.68;;
75854;SDS011;64502;59.976;30.316;2024-01-15T04:32:07;20.38;;;7.50;;
75854;SDS011;64502;59.976;30.316;2024-01-15T04:34:32;18.13;;;8.00;;
75854;SDS011;64502;59.976;30.316;2024-01-15T04:36:58;15.73;;;6.38;;
75854;SDS011;64502;59.976;30.316;2024-01-15T04:39:23;25.98;;;9.15;;
75854;SDS011;64502;59.976;30.316;2024-01-15T04:41:49;20.45;;;8.07;;
75854;SDS011;64502;59.976;30.316;2024-01-15T04:44:14;18.83;;;8.30;;
75854;SDS011;64502;59.976;30.316;2024-01-15T04:46:39;20.25;;;8.43;;
75854;SDS011;64502;59.976;30.316;2024-01-15T04:49:05;14.88;;;7.82;;
75854;SDS011;64502;59.976;30.316;2024-01-15T04:51:30;22.52;;;8.65;;
75854;SDS011;64502;59.976;30.316;2024-01-15T04:53:56;21.17;;;7.68;;
75854;SDS011;64502;59.976;30.316;2024-01-15T04:56:21;23.33;;;9.15;;
75854;SDS011;64502;59.976;30.316;2024-01-15T04:58:47;26.05;;;9.10;;
75854;SDS011;64502;59.976;30.316;2024-01-15T05:01:12;21.58;;;7.82;;
75854;SDS011;64502;59.976;30.316;2024-01-15T05:03:37;24.08;;;8.30;;
75854;SDS011;64502;59.976;30.316;2024-01-15T05:06:04;29.80;;;9.77;;
75854;SDS011;64502;59.976;30.316;2024-01-15T05:08:30;20.13;;;8.73;;
75854;SDS011;64502;59.976;30.316;2024-01-15T05:10:55;26.17;;;9.90;;
75854;SDS011;64502;59.976;30.316;2024-01-15T05:13:20;28.33;;;9.52;;
75854;SDS011;64502;59.976;30.316;2024-01-15T05:15:46;23.65;;;9.40;;
75854;SDS011;64502;59.976;30.316;2024-01-15T05:18:12;22.73;;;9.10;;
75854;SDS011;64502;59.976;30.316;2024-01-15T05:20:37;27.98;;;9.35;;
75854;SDS011;64502;59.976;30.316;2024-01-15T05:23:03;24.02;;;9.23;;
75854;SDS011;64502;59.976;30.316;2024-01-15T05:25:28;27.45;;;9.98;;
75854;SDS011;64502;59.976;30.316;2024-01-15T05:27:54;23.48;;;9.98;;
75854;SDS011;64502;59.976;30.316;2024-01-15T05:30:19;30.02;;;12.43;;
75854;SDS011;64502;59.976;30.316;2024-01-15T05:32:45;28.38;;;10.63;;
75854;SDS011;64502;59.976;30.316;2024-01-15T05:35:10;30.25;;;11.35;;
75854;SDS011;64502;59.976;30.316;2024-01-15T05:37:36;20.33;;;10.45;;
75854;SDS011;64502;59.976;30.316;2024-01-15T05:40:02;24.77;;;10.98;;
75854;SDS011;64502;59.976;30.316;2024-01-15T05:42:29;28.50;;;10.10;;
75854;SDS011;64502;59.976;30.316;2024-01-15T05:44:57;25.23;;;11.45;;
75854;SDS011;64502;59.976;30.316;2024-01-15T05:47:24;24.48;;;11.05;;
75854;SDS011;64502;59.976;30.316;2024-01-15T05:49:50;29.52;;;11.80;;
75854;SDS011;64502;59.976;30.316;2024-01-15T05:52:15;26.73;;;10.88;;
75854;SDS011;64502;59.976;30.316;2024-01-15T05:54:41;31.63;;;10.55;;
75854;SDS011;64502;59.976;30.316;2024-01-15T05:57:06;37.35;;;13.93;;
75854;SDS011;64502;59.976;30.316;2024-01-15T05:59:32;27.73;;;10.02;;
75854;SDS011;64502;59.976;30.316;2024-01-15T06:01:59;30.50;;;12.38;;
75854;SDS011;64502;59.976;30.316;2024-01-15T06:04:26;29.67;;;13.13;;
75854;SDS011;64502;59.976;30.316;2024-01-15T06:06:51;33.00;;;12.35;;
75854;SDS011;64502;59.976;30.316;2024-01-15T06:09:19;27.17;;;10.98;;
75854;SDS011;64502;59.976;30.316;2024-01-15T06:11:44;30.48;;;12.23;;
75854;SDS011;64502;59.976;30.316;2024-01-15T06:14:10;27.10;;;10.90;;
75854;SDS011;64502;59.976;30.316;2024-01-15T06:16:35;25.55;;;10.18;;
75854;SDS011;64502;59.976;30.316;2024-01-15T06:19:01;30.25;;;12.10;;
75854;SDS011;64502;59.976;30.316;2024-01-15T06:21:26;28.80;;;11.57;;
75854;SDS011;64502;59.976;30.316;2024-01-15T06:23:51;22.33;;;10.00;;
75854;SDS011;64502;59.976;30.316;2024-01-15T06:26:17;23.70;;;9.75;;
75854;SDS011;64502;59.976;30.316;2024-01-15T06:28:43;22.00;;;8.95;;
75854;SDS011;64502;59.976;30.316;2024-01-15T06:31:08;28.20;;;10.45;;
75854;SDS011;64502;59.976;30.316;2024-01-15T06:33:34;21.58;;;9.23;;
75854;SDS011;64502;59.976;30.316;2024-01-15T06:35:59;26.20;;;10.68;;
75854;SDS011;64502;59.976;30.316;2024-01-15T06:38:24;37.13;;;11.85;;
75854;SDS011;64502;59.976;30.316;2024-01-15T06:40:50;24.80;;;9.32;;
75854;SDS011;64502;59.976;30.316;2024-01-15T06:43:17;25.85;;;10.93;;
75854;SDS011;64502;59.976;30.316;2024-01-15T06:45:43;23.48;;;9.02;;
75854;SDS011;64502;59.976;30.316;2024-01-15T06:48:09;21.92;;;9.38;;
75854;SDS011;64502;59.976;30.316;2024-01-15T06:50:34;25.73;;;9.88;;
75854;SDS011;64502;59.976;30.316;2024-01-15T06:53:00;26.38;;;9.60;;
75854;SDS011;64502;59.976;30.316;2024-01-15T06:55:26;23.85;;;11.05;;
75854;SDS011;64502;59.976;30.316;2024-01-15T06:57:51;21.42;;;9.10;;
75854;SDS011;64502;59.976;30.316;2024-01-15T07:00:17;29.13;;;10.40;;
75854;SDS011;64502;59.976;30.316;2024-01-15T07:02:44;24.98;;;9.38;;
75854;SDS011;64502;59.976;30.316;2024-01-15T07:05:10;27.27;;;10.98;;
75854;SDS011;64502;59.976;30.316;2024-01-15T07:07:36;25.50;;;10.77;;
75854;SDS011;64502;59.976;30.316;2024-01-15T07:10:02;29.52;;;9.10;;
75854;SDS011;64502;59.976;30.316;2024-01-15T07:12:28;25.40;;;10.23;;
75854;SDS011;64502;59.976;30.316;2024-01-15T07:14:58;22.48;;;10.25;;
75854;SDS011;64502;59.976;30.316;2024-01-15T07:17:23;22.92;;;10.63;;
75854;SDS011;64502;59.976;30.316;2024-01-15T07:19:49;26.13;;;10.38;;
75854;SDS011;64502;59.976;30.316;2024-01-15T07:22:14;27.80;;;11.25;;
75854;SDS011;64502;59.976;30.316;2024-01-15T07:24:42;26.33;;;11.38;;
75854;SDS011;64502;59.976;30.316;2024-01-15T07:27:08;24.95;;;10.07;;
75854;SDS011;64502;59.976;30.316;2024-01-15T07:29:34;23.85;;;9.38;;
75854;SDS011;64502;59.976;30.316;2024-01-15T07:32:02;23.17;;;9.00;;
75854;SDS011;64502;59.976;30.316;2024-01-15T07:34:28;21.50;;;10.15;;
75854;SDS011;64502;59.976;30.316;2024-01-15T07:36:54;19.50;;;9.10;;
75854;SDS011;64502;59.976;30.316;2024-01-15T07:39:20;21.65;;;8.45;;
75854;SDS011;64502;59.976;30.316;2024-01-15T07:41:45;21.13;;;8.27;;
75854;SDS011;64502;59.976;30.316;2024-01-15T07:44:11;27.55;;;10.48;;
75854;SDS011;64502;59.976;30.316;2024-01-15T07:46:36;25.52;;;9.63;;
75854;SDS011;64502;59.976;30.316;2024-01-15T07:49:02;20.55;;;8.93;;
75854;SDS011;64502;59.976;30.316;2024-01-15T07:51:28;27.45;;;9.80;;
75854;SDS011;64502;59.976;30.316;2024-01-15T07:53:54;19.35;;;7.60;;
75854;SDS011;64502;59.976;30.316;2024-01-15T07:56:21;19.77;;;8.75;;
75854;SDS011;64502;59.976;30.316;2024-01-15T07:58:46;22.55;;;9.45;;
75854;SDS011;64502;59.976;30.316;2024-01-15T08:01:12;31.67;;;9.18;;
75854;SDS011;64502;59.976;30.316;2024-01-15T08:03:37;20.33;;;8.25;;
75854;SDS011;64502;59.976;30.316;2024-01-15T08:06:02;21.25;;;9.57;;
75854;SDS011;64502;59.976;30.316;2024-01-15T08:08:28;20.42;;;8.43;;
75854;SDS011;64502;59.976;30.316;2024-01-15T08:10:54;24.27;;;10.23;;
75854;SDS011;64502;59.976;30.316;2024-01-15T08:13:19;25.63;;;9.85;;
75854;SDS011;64502;59.976;30.316;2024-01-15T08:15:45;25.13;;;9.35;;
75854;SDS011;64502;59.976;30.316;2024-01-15T08:18:11;18.08;;;8.57;;
75854;SDS011;64502;59.976;30.316;2024-01-15T08:20:37;17.23;;;7.68;;
75854;SDS011;64502;59.976;30.316;2024-01-15T08:23:02;21.10;;;9.50;;
75854;SDS011;64502;59.976;30.316;2024-01-15T08:25:28;22.42;;;9.38;;
75854;SDS011;64502;59.976;30.316;2024-01-15T08:27:54;18.95;;;7.38;;
75854;SDS011;64502;59.976;30.316;2024-01-15T08:30:21;19.13;;;8.32;;
75854;SDS011;64502;59.976;30.316;2024-01-15T08:32:49;20.58;;;7.97;;
75854;SDS011;64502;59.976;30.316;2024-01-15T08:35:15;21.73;;;10.05;;
75854;SDS011;64502;59.976;30.316;2024-01-15T08:37:40;24.02;;;10.23;;
75854;SDS011;64502;59.976;30.316;2024-01-15T08:40:06;20.00;;;7.95;;
75854;SDS011;64502;59.976;30.316;2024-01-15T08:42:32;20.27;;;8.65;;
75854;SDS011;64502;59.976;30.316;2024-01-15T08:44:58;19.10;;;8.45;;
75854;SDS011;64502;59.976;30.316;2024-01-15T08:47:23;24.17;;;9.50;;
75854;SDS011;64502;59.976;30.316;2024-01-15T08:49:51;19.92;;;9.77;;
75854;SDS011;64502;59.976;30.316;2024-01-15T08:52:17;20.23;;;8.80;;
75854;SDS011;64502;59.976;30.316;2024-01-15T08:54:42;18.05;;;8.65;;
75854;SDS011;64502;59.976;30.316;2024-01-15T08:57:08;17.35;;;7.30;;
75854;SDS011;64502;59.976;30.316;2024-01-15T08:59:33;18.65;;;9.10;;
75854;SDS011;64502;59.976;30.316;2024-01-15T09:01:58;20.38;;;8.13;;
75854;SDS011;64502;59.976;30.316;2024-01-15T09:04:24;19.20;;;8.48;;
75854;SDS011;64502;59.976;30.316;2024-01-15T09:06:50;23.20;;;7.95;;
75854;SDS011;64502;59.976;30.316;2024-01-15T09:09:15;20.55;;;8.27;;
75854;SDS011;64502;59.976;30.316;2024-01-15T09:11:41;18.58;;;8.05;;
75854;SDS011;64502;59.976;30.316;2024-01-15T09:14:06;23.58;;;8.73;;
75854;SDS011;64502;59.976;30.316;2024-01-15T09:16:33;17.33;;;7.90;;
75854;SDS011;64502;59.976;30.316;2024-01-15T09:18:59;17.35;;;8.38;;
75854;SDS011;64502;59.976;30.316;2024-01-15T09:21:25;17.35;;;8.27;;
75854;SDS011;64502;59.976;30.316;2024-01-15T09:23:51;19.52;;;7.60;;
75854;SDS011;64502;59.976;30.316;2024-01-15T09:26:16;19.70;;;8.02;;
75854;SDS011;64502;59.976;30.316;2024-01-15T09:28:42;18.40;;;7.32;;
75854;SDS011;64502;59.976;30.316;2024-01-15T09:31:07;21.25;;;8.48;;
75854;SDS011;64502;59.976;30.316;2024-01-15T09:33:33;15.00;;;7.50;;
75854;SDS011;64502;59.976;30.316;2024-01-15T09:36:02;19.88;;;8.48;;
75854;SDS011;64502;59.976;30.316;2024-01-15T09:38:29;20.48;;;8.55;;
75854;SDS011;64502;59.976;30.316;2024-01-15T09:40:57;23.38;;;8.35;;
75854;SDS011;64502;59.976;30.316;2024-01-15T09:43:23;19.98;;;9.10;;
75854;SDS011;64502;59.976;30.316;2024-01-15T09:45:49;16.70;;;7.63;;
75854;SDS011;64502;59.976;30.316;2024-01-15T09:48:15;19.30;;;7.43;;
75854;SDS011;64502;59.976;30.316;2024-01-15T09:50:41;20.80;;;7.20;;
75854;SDS011;64502;59.976;30.316;2024-01-15T09:53:07;18.58;;;8.90;;
75854;SDS011;64502;59.976;30.316;2024-01-15T09:55:35;26.38;;;8.75;;
75854;SDS011;64502;59.976;30.316;2024-01-15T09:58:02;20.35;;;7.55;;
75854;SDS011;64502;59.976;30.316;2024-01-15T10:00:28;20.80;;;7.60;;
75854;SDS011;64502;59.976;30.316;2024-01-15T10:02:57;20.67;;;7.78;;
75854;SDS011;64502;59.976;30.316;2024-01-15T10:05:25;18.52;;;7.18;;
75854;SDS011;64502;59.976;30.316;2024-01-15T10:07:51;18.73;;;8.18;;
75854;SDS011;64502;59.976;30.316;2024-01-15T10:10:19;19.48;;;9.02;;
75854;SDS011;64502;59.976;30.316;2024-01-15T10:12:47;18.00;;;8.02;;
75854;SDS011;64502;59.976;30.316;2024-01-15T10:15:12;20.33;;;8.93;;
75854;SDS011;64502;59.976;30.316;2024-01-15T10:17:38;21.35;;;7.95;;
75854;SDS011;64502;59.976;30.316;2024-01-15T10:20:08;22.52;;;7.88;;
75854;SDS011;64502;59.976;30.316;2024-01-15T10:22:43;21.38;;;7.93;;
75854;SDS011;64502;59.976;30.316;2024-01-15T10:27:42;16.85;;;8.20;;
75854;SDS011;64502;59.976;30.316;2024-01-15T10:30:08;19.73;;;8.60;;
75854;SDS011;64502;59.976;30.316;2024-01-15T10:32:35;19.45;;;8.82;;
75854;SDS011;64502;59.976;30.316;2024-01-15T10:35:00;14.65;;;7.32;;
75854;SDS011;64502;59.976;30.316;2024-01-15T10:37:26;22.63;;;8.40;;
75854;SDS011;64502;59.976;30.316;2024-01-15T10:39:52;19.15;;;7.97;;
75854;SDS011;64502;59.976;30.316;2024-01-15T10:42:17;23.48;;;9.27;;
75854;SDS011;64502;59.976;30.316;2024-01-15T10:44:43;19.80;;;9.43;;
75854;SDS011;64502;59.976;30.316;2024-01-15T10:47:11;15.82;;;7.93;;
75854;SDS011;64502;59.976;30.316;2024-01-15T10:49:38;17.85;;;7.45;;
75854;SDS011;64502;59.976;30.316;2024-01-15T10:52:04;19.38;;;7.50;;
75854;SDS011;64502;59.976;30.316;2024-01-15T10:54:30;23.30;;;8.80;;
75854;SDS011;64502;59.976;30.316;2024-01-15T10:56:57;18.40;;;7.32;;
75854;SDS011;64502;59.976;30.316;2024-01-15T10:59:22;26.13;;;9.45;;
75854;SDS011;64502;59.976;30.316;2024-01-15T11:01:49;26.88;;;9.43;;
75854;SDS011;64502;59.976;30.316;2024-01-15T11:04:15;18.63;;;8.88;;
75854;SDS011;64502;59.976;30.316;2024-01-15T11:06:45;22.63;;;8.68;;
75854;SDS011;64502;59.976;30.316;2024-01-15T11:09:13;19.55;;;8.70;;
75854;SDS011;64502;59.976;30.316;2024-01-15T11:11:40;22.58;;;8.50;;
75854;SDS011;64502;59.976;30.316;2024-01-15T11:16:57;18.95;;;7.82;;
75854;SDS011;64502;59.976;30.316;2024-01-15T11:19:22;19.10;;;8.88;;
75854;SDS011;64502;59.976;30.316;2024-01-15T11:21:48;25.33;;;10.63;;
75854;SDS011;64502;59.976;30.316;2024-01-15T11:24:32;21.15;;;9.18;;
75854;SDS011;64502;59.976;30.316;2024-01-15T11:27:02;24.20;;;8.60;;
75854;SDS011;64502;59.976;30.316;2024-01-15T11:34:21;25.10;;;9.35;;
75854;SDS011;64502;59.976;30.316;2024-01-15T11:37:22;21.67;;;9.60;;
75854;SDS011;64502;59.976;30.316;2024-01-15T11:39:50;21.30;;;9.10;;
75854;SDS011;64502;59.976;30.316;2024-01-15T11:42:17;22.20;;;9.13;;
75854;SDS011;64502;59.976;30.316;2024-01-15T11:44:43;22.70;;;10.30;;
75854;SDS011;64502;59.976;30.316;2024-01-15T11:47:10;22.95;;;9.80;;
75854;SDS011;64502;59.976;30.316;2024-01-15T11:52:32;24.95;;;9.45;;
75854;SDS011;64502;59.976;30.316;2024-01-15T12:00:12;23.50;;;8.85;;
75854;SDS011;64502;59.976;30.316;2024-01-15T12:02:39;26.08;;;9.40;;
75854;SDS011;64502;59.976;30.316;2024-01-15T12:05:06;22.42;;;9.10;;
75854;SDS011;64502;59.976;30.316;2024-01-15T12:07:38;20.58;;;9.05;;
75854;SDS011;64502;59.976;30.316;2024-01-15T12:10:07;22.00;;;10.48;;
75854;SDS011;64502;59.976;30.316;2024-01-15T12:15:09;21.15;;;9.40;;
75854;SDS011;64502;59.976;30.316;2024-01-15T12:17:35;24.73;;;9.07;;
75854;SDS011;64502;59.976;30.316;2024-01-15T12:20:03;19.25;;;9.75;;
75854;SDS011;64502;59.976;30.316;2024-01-15T12:22:31;24.92;;;8.75;;
75854;SDS011;64502;59.976;30.316;2024-01-15T12:24:56;21.27;;;8.80;;
75854;SDS011;64502;59.976;30.316;2024-01-15T12:27:22;21.23;;;9.63;;
75854;SDS011;64502;59.976;30.316;2024-01-15T12:29:49;20.17;;;9.02;;
75854;SDS011;64502;59.976;30.316;2024-01-15T12:32:14;17.83;;;8.02;;
75854;SDS011;64502;59.976;30.316;2024-01-15T12:34:40;22.02;;;8.85;;
75854;SDS011;64502;59.976;30.316;2024-01-15T12:37:06;21.10;;;9.40;;
75854;SDS011;64502;59.976;30.316;2024-01-15T12:39:36;22.35;;;9.25;;
75854;SDS011;64502;59.976;30.316;2024-01-15T12:42:02;19.08;;;9.30;;
75854;SDS011;64502;59.976;30.316;2024-01-15T12:44:28;20.17;;;8.07;;
75854;SDS011;64502;59.976;30.316;2024-01-15T12:46:54;23.77;;;9.55;;
75854;SDS011;64502;59.976;30.316;2024-01-15T12:49:20;23.63;;;8.00;;
75854;SDS011;64502;59.976;30.316;2024-01-15T12:51:53;21.55;;;8.52;;
75854;SDS011;64502;59.976;30.316;2024-01-15T12:54:19;22.30;;;8.35;;
75854;SDS011;64502;59.976;30.316;2024-01-15T12:56:45;23.35;;;10.20;;
75854;SDS011;64502;59.976;30.316;2024-01-15T12:59:11;24.90;;;8.55;;
75854;SDS011;64502;59.976;30.316;2024-01-15T13:01:37;20.15;;;8.88;;
75854;SDS011;64502;59.976;30.316;2024-01-15T13:04:02;21.52;;;8.32;;
75854;SDS011;64502;59.976;30.316;2024-01-15T13:06:28;24.52;;;8.98;;
75854;SDS011;64502;59.976;30.316;2024-01-15T13:08:53;20.10;;;7.63;;
75854;SDS011;64502;59.976;30.316;2024-01-15T13:11:19;19.20;;;8.23;;
75854;SDS011;64502;59.976;30.316;2024-01-15T13:13:44;22.55;;;7.65;;
75854;SDS011;64502;59.976;30.316;2024-01-15T13:16:10;18.17;;;6.95;;
75854;SDS011;64502;59.976;30.316;2024-01-15T13:18:35;19.00;;;7.18;;
75854;SDS011;64502;59.976;30.316;2024-01-15T13:21:01;19.23;;;8.20;;
75854;SDS011;64502;59.976;30.316;2024-01-15T13:23:27;19.90;;;7.72;;
75854;SDS011;64502;59.976;30.316;2024-01-15T13:25:53;18.88;;;6.90;;
75854;SDS011;64502;59.976;30.316;2024-01-15T13:28:18;21.30;;;7.85;;
75854;SDS011;64502;59.976;30.316;2024-01-15T13:30:44;18.73;;;6.72;;
75854;SDS011;64502;59.976;30.316;2024-01-15T13:33:10;23.75;;;8.23;;
75854;SDS011;64502;59.976;30.316;2024-01-15T13:35:35;22.90;;;7.60;;
75854;SDS011;64502;59.976;30.316;2024-01-15T13:38:01;16.13;;;7.22;;
75854;SDS011;64502;59.976;30.316;2024-01-15T13:40:26;16.30;;;6.53;;
75854;SDS011;64502;59.976;30.316;2024-01-15T13:42:52;17.63;;;7.57;;
75854;SDS011;64502;59.976;30.316;2024-01-15T13:45:19;15.68;;;8.07;;
75854;SDS011;64502;59.976;30.316;2024-01-15T13:47:45;15.93;;;7.65;;
75854;SDS011;64502;59.976;30.316;2024-01-15T13:50:11;18.80;;;7.68;;
75854;SDS011;64502;59.976;30.316;2024-01-15T13:52:36;15.93;;;6.35;;
75854;SDS011;64502;59.976;30.316;2024-01-15T13:55:02;14.73;;;7.75;;
75854;SDS011;64502;59.976;30.316;2024-01-15T13:57:31;20.58;;;8.18;;
75854;SDS011;64502;59.976;30.316;2024-01-15T13:59:56;16.67;;;6.90;;
75854;SDS011;64502;59.976;30.316;2024-01-15T14:02:22;18.90;;;7.55;;
75854;SDS011;64502;59.976;30.316;2024-01-15T14:04:48;20.45;;;7.60;;
75854;SDS011;64502;59.976;30.316;2024-01-15T14:07:13;19.02;;;7.25;;
75854;SDS011;64502;59.976;30.316;2024-01-15T14:09:39;19.80;;;8.55;;
75854;SDS011;64502;59.976;30.316;2024-01-15T14:12:04;23.05;;;10.68;;
75854;SDS011;64502;59.976;30.316;2024-01-15T14:14:31;19.35;;;8.30;;
75854;SDS011;64502;59.976;30.316;2024-01-15T14:16:56;18.20;;;7.30;;
75854;SDS011;64502;59.976;30.316;2024-01-15T14:19:22;20.58;;;6.75;;
75854;SDS011;64502;59.976;30.316;2024-01-15T14:21:47;20.58;;;8.38;;
75854;SDS011;64502;59.976;30.316;2024-01-15T14:24:13;16.02;;;7.05;;
75854;SDS011;64502;59.976;30.316;2024-01-15T14:26:38;20.13;;;8.00;;
75854;SDS011;64502;59.976;30.316;2024-01-15T14:29:04;18.38;;;7.93;;
75854;SDS011;64502;59.976;30.316;2024-01-15T14:31:31;15.20;;;7.15;;
75854;SDS011;64502;59.976;30.316;2024-01-15T14:33:58;18.50;;;8.85;;
75854;SDS011;64502;59.976;30.316;2024-01-15T14:36:25;20.92;;;8.18;;